Time;durP1;ratioP1;P1;durP2;ratioP2;P2;SDS_P1;SDS_P2;PMS_P1;PMS_P2;Temp;Humidity;BMP_temperature;BMP_pressure;BME280_temperature;BME280_humidity;BME280_pressure;Samples;Min_cycle;Max_cycle;Signal;HPM_P1;HPM_P2
2023/06/12 00:09:00;;;;;;;3.08;1.30;;;;;;;;;;20930045;28;20504;-65
2023/06/12 00:19:03;;;;;;;3.90;1.42;;;;;;;;;;20928451;28;20116;-64
2023/06/12 00:29:04;;;;;;;2.75;1.20;;;;;;;;;;20928115;28;20132;-65
2023/06/12 00:39:05;;;;;;;3.08;1.20;;;;;;;;;;20928096;28;20053;-64
2023/06/12 00:49:06;;;;;;;4.03;1.58;;;;;;;;;;20927304;28;20063;-65
2023/06/12 00:59:08;;;;;;;3.42;1.48;;;;;;;;;;20926710;28;20045;-64
2023/06/12 01:09:13;;;;;;;2.63;1.70;;;;;;;;;;20925769;28;20076;-64
2023/06/12 01:19:19;;;;;;;2.90;1.63;;;;;;;;;;20923761;28;20045;-65
2023/06/12 01:29:43;;;;;;;4.18;1.50;;;;;;;;;;20922768;28;20057;-65
2023/06/12 01:39:54;;;;;;;2.28;1.13;;;;;;;;;;20923426;28;20068;-64
2023/06/12 01:49:56;;;;;;;2.33;1.30;;;;;;;;;;20922913;28;20055;-64
2023/06/12 01:59:59;;;;;;;3.58;1.30;;;;;;;;;;20920566;28;20048;-64
2023/06/12 02:10:00;;;;;;;5.30;1.65;;;;;;;;;;20921078;28;20411;-64
2023/06/12 02:20:03;;;;;;;4.15;1.65;;;;;;;;;;20920154;28;20483;-64
2023/06/12 02:30:04;;;;;;;3.47;1.60;;;;;;;;;;20917846;28;20049;-65
2023/06/12 02:40:06;;;;;;;4.75;1.55;;;;;;;;;;20918711;28;20049;-65
2023/06/12 02:50:07;;;;;;;4.47;1.77;;;;;;;;;;20917919;28;20041;-64
2023/06/12 03:00:08;;;;;;;3.85;1.40;;;;;;;;;;20917342;28;20102;-64
2023/06/12 03:10:10;;;;;;;2.22;1.38;;;;;;;;;;20915035;28;20097;-65
2023/06/12 03:20:11;;;;;;;2.63;1.75;;;;;;;;;;20915730;28;20045;-64
2023/06/12 03:30:12;;;;;;;2.92;1.40;;;;;;;;;;20915638;28;20482;-64
2023/06/12 03:40:14;;;;;;;6.15;2.20;;;;;;;;;;20914082;28;20134;-65
2023/06/12 03:50:16;;;;;;;4.03;1.60;;;;;;;;;;20913080;28;20045;-65
2023/06/12 04:00:19;;;;;;;3.80;1.80;;;;;;;;;;20913836;28;20075;-65
2023/06/12 04:10:22;;;;;;;3.53;1.92;;;;;;;;;;20913508;28;20130;-65
2023/06/12 04:20:23;;;;;;;4.78;1.85;;;;;;;;;;20913340;28;20103;-64
2023/06/12 04:30:25;;;;;;;4.72;2.28;;;;;;;;;;20911881;28;20056;-64
2023/06/12 04:40:26;;;;;;;5.82;2.47;;;;;;;;;;20912426;28;20098;-64
2023/06/12 04:50:28;;;;;;;4.28;2.20;;;;;;;;;;20920397;28;20106;-64
2023/06/12 05:00:30;;;;;;;4.43;2.15;;;;;;;;;;20926573;28;20045;-64
2023/06/12 05:10:31;;;;;;;2.58;1.92;;;;;;;;;;20925830;28;20056;-64
2023/06/12 05:20:32;;;;;;;3.80;2.20;;;;;;;;;;20923560;28;20051;-64
2023/06/12 05:30:33;;;;;;;3.25;2.13;;;;;;;;;;20924668;28;20520;-64
2023/06/12 05:40:34;;;;;;;5.32;1.85;;;;;;;;;;20921892;28;20142;-64
2023/06/12 05:50:35;;;;;;;4.82;1.88;;;;;;;;;;20922847;28;20051;-64
2023/06/12 06:00:37;;;;;;;4.40;2.03;;;;;;;;;;20921095;28;20052;-64
2023/06/12 06:10:38;;;;;;;3.42;1.92;;;;;;;;;;20919685;28;20045;-63
2023/06/12 06:20:40;;;;;;;4.50;1.75;;;;;;;;;;20919814;28;20504;-63
2023/06/12 06:30:41;;;;;;;5.38;2.08;;;;;;;;;;20917773;28;20056;-64
2023/06/12 06:40:42;;;;;;;11.50;2.58;;;;;;;;;;20918204;28;20484;-63
2023/06/12 06:50:43;;;;;;;5.35;1.77;;;;;;;;;;20917418;28;20550;-64
2023/06/12 07:00:44;;;;;;;2.92;1.90;;;;;;;;;;20915209;28;20095;-63
2023/06/12 07:10:45;;;;;;;6.03;2.10;;;;;;;;;;20915358;28;20517;-64
2023/06/12 07:20:46;;;;;;;6.47;2.00;;;;;;;;;;20914438;28;20041;-64
2023/06/12 07:30:48;;;;;;;4.55;2.15;;;;;;;;;;20914012;28;20053;-64
2023/06/12 07:40:49;;;;;;;4.10;1.90;;;;;;;;;;20913090;28;20127;-64
2023/06/12 07:50:50;;;;;;;5.82;2.40;;;;;;;;;;20913782;28;20041;-65
2023/06/12 08:00:55;;;;;;;4.40;1.83;;;;;;;;;;20911670;28;20128;-64
2023/06/12 08:10:57;;;;;;;4.05;1.70;;;;;;;;;;20911697;28;20052;-64
2023/06/12 08:20:58;;;;;;;6.93;2.03;;;;;;;;;;20914653;28;20066;-65
2023/06/12 08:31:01;;;;;;;6.30;2.47;;;;;;;;;;20926396;28;20521;-64
2023/06/12 08:41:03;;;;;;;6.13;1.98;;;;;;;;;;20927859;28;20040;-64
2023/06/12 08:51:04;;;;;;;4.50;1.98;;;;;;;;;;20925654;28;20059;-64
2023/06/12 09:01:08;;;;;;;6.10;2.03;;;;;;;;;;20925066;28;20195;-65
2023/06/12 09:11:09;;;;;;;4.72;2.35;;;;;;;;;;20925542;28;20095;-65
2023/06/12 09:21:10;;;;;;;4.55;2.17;;;;;;;;;;20924698;28;20486;-64
2023/06/12 09:31:11;;;;;;;4.47;2.20;;;;;;;;;;20921568;28;20081;-65
2023/06/12 09:41:13;;;;;;;5.20;2.50;;;;;;;;;;20922676;28;20231;-64
2023/06/12 09:51:15;;;;;;;4.78;2.10;;;;;;;;;;20920884;28;20045;-64
2023/06/12 10:01:19;;;;;;;4.82;2.25;;;;;;;;;;20921340;28;20194;-63
2023/06/12 10:11:20;;;;;;;4.43;1.90;;;;;;;;;;20918391;28;20519;-65
2023/06/12 10:21:22;;;;;;;6.80;2.33;;;;;;;;;;20918321;28;20048;-64
2023/06/12 10:31:24;;;;;;;9.93;1.90;;;;;;;;;;20918604;28;20057;-65
2023/06/12 10:41:31;;;;;;;4.25;2.38;;;;;;;;;;20918748;28;20049;-69
2023/06/12 10:51:33;;;;;;;5.22;2.50;;;;;;;;;;20916405;28;20037;-67
2023/06/12 11:01:39;;;;;;;4.28;2.10;;;;;;;;;;20917872;28;20049;-73
2023/06/12 11:11:48;;;;;;;4.93;2.33;;;;;;;;;;20915826;28;20045;-63
2023/06/12 11:21:49;;;;;;;6.50;2.17;;;;;;;;;;20915842;28;20049;-66
2023/06/12 11:31:51;;;;;;;6.57;2.50;;;;;;;;;;20915769;28;20137;-67
2023/06/12 11:41:54;;;;;;;5.65;2.75;;;;;;;;;;20911943;28;20052;-69
2023/06/12 11:51:55;;;;;;;6.00;2.53;;;;;;;;;;20912657;28;20049;-68
2023/06/12 12:01:59;;;;;;;5.38;2.58;;;;;;;;;;20912207;28;20045;-68
2023/06/12 12:12:06;;;;;;;7.00;2.53;;;;;;;;;;20912893;28;20132;-68
2023/06/12 12:22:10;;;;;;;6.18;3.85;;;;;;;;;;20911417;28;20041;-68
2023/06/12 12:32:11;;;;;;;5.30;2.20;;;;;;;;;;20910491;28;20060;-67
2023/06/12 12:42:12;;;;;;;7.63;2.72;;;;;;;;;;20910420;28;20107;-68
2023/06/12 12:52:14;;;;;;;5.63;2.45;;;;;;;;;;20910291;28;20052;-67
2023/06/12 13:02:16;;;;;;;7.47;2.88;;;;;;;;;;20910873;28;20053;-68
2023/06/12 13:12:17;;;;;;;3.38;2.30;;;;;;;;;;20919657;28;20079;-67
2023/06/12 13:22:18;;;;;;;7.25;3.72;;;;;;;;;;20924526;28;20406;-68
2023/06/12 13:32:19;;;;;;;6.38;2.42;;;;;;;;;;20936294;28;20418;-69
2023/06/12 13:42:22;;;;;;;4.82;2.42;;;;;;;;;;20979293;28;20401;-67
2023/06/12 13:52:23;;;;;;;7.38;2.22;;;;;;;;;;20995384;28;20048;-65
2023/06/12 14:02:24;;;;;;;6.80;2.90;;;;;;;;;;20996831;28;20044;-64
2023/06/12 14:12:26;;;;;;;6.38;2.58;;;;;;;;;;21002095;28;20490;-63
2023/06/12 14:22:28;;;;;;;5.70;2.53;;;;;;;;;;21002250;28;20098;-65
2023/06/12 14:32:29;;;;;;;5.00;1.85;;;;;;;;;;21002000;28;20056;-64
2023/06/12 14:42:30;;;;;;;3.65;1.90;;;;;;;;;;21000275;28;20036;-64
2023/06/12 14:52:31;;;;;;;5.60;2.28;;;;;;;;;;21000414;28;20494;-64
2023/06/12 15:02:32;;;;;;;6.57;2.65;;;;;;;;;;20999922;28;20048;-64
2023/06/12 15:12:33;;;;;;;7.22;3.67;;;;;;;;;;20999516;28;20071;-64
2023/06/12 15:22:34;;;;;;;8.90;3.10;;;;;;;;;;20998460;28;20393;-64
2023/06/12 15:32:36;;;;;;;6.03;2.33;;;;;;;;;;20995926;28;20417;-65
2023/06/12 15:42:40;;;;;;;6.72;2.65;;;;;;;;;;20997595;28;20044;-64
2023/06/12 15:52:41;;;;;;;4.70;1.90;;;;;;;;;;20996912;28;20041;-64
2023/06/12 16:02:42;;;;;;;3.80;1.95;;;;;;;;;;20995193;28;20051;-65
2023/06/12 16:12:43;;;;;;;5.22;2.17;;;;;;;;;;20996335;28;20052;-63
2023/06/12 16:22:44;;;;;;;7.88;2.40;;;;;;;;;;20995380;28;20048;-64
2023/06/12 16:32:45;;;;;;;3.40;1.83;;;;;;;;;;20996435;28;20059;-67
2023/06/12 16:42:47;;;;;;;3.97;2.20;;;;;;;;;;20999261;28;20118;-71
2023/06/12 16:52:48;;;;;;;5.20;2.40;;;;;;;;;;21010017;28;20120;-62
2023/06/12 17:02:50;;;;;;;4.47;2.20;;;;;;;;;;21008744;28;20406;-60
2023/06/12 17:12:51;;;;;;;3.65;2.03;;;;;;;;;;21007667;28;20508;-61
2023/06/12 17:22:53;;;;;;;4.53;2.78;;;;;;;;;;21005743;28;20045;-63
2023/06/12 17:32:54;;;;;;;3.97;2.15;;;;;;;;;;21007021;28;20375;-62
2023/06/12 17:42:55;;;;;;;3.38;2.13;;;;;;;;;;21006024;28;20485;-62
2023/06/12 17:52:57;;;;;;;5.13;2.50;;;;;;;;;;21003016;28;20112;-70
2023/06/12 18:02:58;;;;;;;4.70;2.42;;;;;;;;;;21003762;28;20049;-68
2023/06/12 18:12:59;;;;;;;5.38;2.92;;;;;;;;;;21003212;28;20052;-66
2023/06/12 18:23:00;;;;;;;4.47;2.17;;;;;;;;;;21002354;28;20036;-63
2023/06/12 18:33:01;;;;;;;4.13;2.53;;;;;;;;;;21000969;28;20127;-64
2023/06/12 18:43:02;;;;;;;5.05;3.20;;;;;;;;;;21000658;28;20129;-64
2023/06/12 18:53:03;;;;;;;5.85;2.35;;;;;;;;;;21000380;28;20090;-70
2023/06/12 19:03:04;;;;;;;6.20;2.97;;;;;;;;;;20999494;28;20496;-70
2023/06/12 19:13:05;;;;;;;6.88;2.88;;;;;;;;;;20997899;28;20089;-70
2023/06/12 19:23:07;;;;;;;5.30;2.50;;;;;;;;;;20998285;28;20045;-70
2023/06/12 19:33:08;;;;;;;5.63;2.45;;;;;;;;;;20996724;28;20052;-70
2023/06/12 19:43:09;;;;;;;5.20;3.30;;;;;;;;;;20997317;28;20306;-70
2023/06/12 19:53:14;;;;;;;5.65;3.08;;;;;;;;;;20997156;28;20041;-70
2023/06/12 20:03:16;;;;;;;4.68;2.88;;;;;;;;;;20996784;28;20048;-70
2023/06/12 20:13:17;;;;;;;5.10;2.70;;;;;;;;;;20996337;28;20105;-70
2023/06/12 20:23:18;;;;;;;5.82;2.85;;;;;;;;;;21009701;28;20076;-71
2023/06/12 20:33:19;;;;;;;4.90;2.70;;;;;;;;;;21010792;28;20406;-70
2023/06/12 20:43:20;;;;;;;9.20;3.65;;;;;;;;;;21010476;28;20051;-70
2023/06/12 20:53:22;;;;;;;4.03;2.53;;;;;;;;;;21009674;28;20044;-70
2023/06/12 21:03:23;;;;;;;5.40;2.53;;;;;;;;;;21008914;28;20148;-70
2023/06/12 21:13:25;;;;;;;7.15;3.95;;;;;;;;;;21008318;28;20049;-70
2023/06/12 21:23:26;;;;;;;12.50;5.57;;;;;;;;;;21007786;28;20485;-70
2023/06/12 21:33:27;;;;;;;4.20;2.42;;;;;;;;;;21004535;28;20056;-70
2023/06/12 21:43:28;;;;;;;3.05;2.00;;;;;;;;;;21005156;28;20048;-70
2023/06/12 21:53:29;;;;;;;6.50;2.60;;;;;;;;;;21003987;28;20044;-71
2023/06/12 22:03:30;;;;;;;3.65;2.05;;;;;;;;;;21003241;28;20051;-69
2023/06/12 22:13:32;;;;;;;4.35;1.83;;;;;;;;;;21003619;28;20044;-70
2023/06/12 22:23:33;;;;;;;4.22;2.00;;;;;;;;;;21003300;28;20048;-70
2023/06/12 22:33:34;;;;;;;7.13;2.00;;;;;;;;;;21002127;28;20506;-70
2023/06/12 22:43:35;;;;;;;2.90;1.67;;;;;;;;;;20999958;28;20091;-70
2023/06/12 22:53:37;;;;;;;6.93;2.33;;;;;;;;;;20999305;28;20131;-70
2023/06/12 23:03:38;;;;;;;5.43;1.92;;;;;;;;;;20999790;28;20410;-70
2023/06/12 23:13:40;;;;;;;2.92;1.90;;;;;;;;;;20999101;28;20474;-70
2023/06/12 23:23:43;;;;;;;4.28;2.50;;;;;;;;;;20998637;28;20401;-70
2023/06/12 23:33:47;;;;;;;3.72;1.52;;;;;;;;;;20999074;28;20126;-69
2023/06/12 23:43:48;;;;;;;4.43;2.25;;;;;;;;;;20997774;28;20570;-70
2023/06/12 23:53:49;;;;;;;4.35;2.40;;;;;;;;;;20995407;28;20044;-68
